Airfield :
LOGIN :

Register | Disclaimer

   EN    FR    IT 

 










Legend :    VFR   Marginal VFR   IFR   Intensive IFR   Very Intensive IFR
Visi :
Ceiling :
>= 8 km
>= 3000ft
5 to 8 km
1000 to 3000 ft
1500m to 5 km
500 to 1000 ft
800 to 1500m
200 to 500 ft
< 800m
< 200 ft
Symbols :   Thunderstorms  Fog  Heavy snow  Heavy precipitations  Wind > 20 kt
SIGMETs :     Misc.  Thunderstorms  Icing  Turbulence  Mountain Waves  Volcanic Ashes






- Airport Elevation : 1455 ft


ETIH - Hohenfels Army Air Field

CURRENT METAR :
  • 250616Z AUTO 00000KT 0600 FZFG VV001 M06/M08 A3017 RMK AO2 VIS 0600V6000 CIG 001V003 SLP254 RVRNO $

EXPIRED METARs :
  • 250556Z AUTO 00000KT 9000 BR BKN003 M07/M09 A3018 RMK AO2 SLP258 T10721092 11062 21075 53005 $
  • 250546Z AUTO 00000KT 9000 BR BKN003 M07/M09 A3017 RMK AO2 BKN V FEW SLP254 $
  • 250456Z AUTO 00000KT 9999 CLR M07/M09 A3016 RMK AO2 SLP249 T10731094 $
  • 250356Z AUTO 00000KT 9000 BR CLR M07/M09 A3015 RMK AO2 SLP245 T10721092 $

Expired Forecast.



MET'MAP, your aeronautical weather chart ! - Copyright ORBIFLY December 2007 - Disclaimer

ORBIFLY MET'MAP TEAM :

Programming & Development : Alexandra Zaïnal
Concept & original design : Baudouin d'Aumeries
Assistance for programming : Marc-Olivier Méhu
Technical & hardware support : Manuel Goepfert

Contact : metmap@orbifly.com




SOURCES & CREDITS :

   NOAA